Time;durP1;ratioP1;P1;durP2;ratioP2;P2;SDS_P1;SDS_P2;PMS_P1;PMS_P2;Temp;Humidity;BMP_temperature;BMP_pressure;BME280_temperature;BME280_humidity;BME280_pressure;Samples;Min_cycle;Max_cycle;Signal;HPM_P1;HPM_P2
2022/11/11 00:01:13;;;;;;;8.57;4.27;;;9.40;99.90;;;;;;5054678;28;20191;-76
2022/11/11 00:03:39;;;;;;;8.87;3.87;;;9.40;99.90;;;;;;5069794;28;20182;-76
2022/11/11 00:06:08;;;;;;;10.63;4.97;;;9.40;99.90;;;;;;5052997;28;20179;-76
2022/11/11 00:08:33;;;;;;;7.87;5.03;;;9.30;99.90;;;;;;5054128;28;20808;-76
2022/11/11 00:11:04;;;;;;;9.57;4.10;;;9.40;99.90;;;;;;5069600;28;20266;-76
2022/11/11 00:13:30;;;;;;;10.77;4.77;;;9.30;99.90;;;;;;5054089;28;20204;-76
2022/11/11 00:15:55;;;;;;;5.73;3.83;;;9.30;99.90;;;;;;5054099;28;20634;-76
2022/11/11 00:26:40;;;;;;;7.63;4.97;;;9.20;99.90;;;;;;5054455;28;20162;-76
2022/11/11 00:29:06;;;;;;;8.53;4.20;;;9.20;99.90;;;;;;5052918;28;20713;-76
2022/11/11 00:31:34;;;;;;;7.33;4.03;;;9.20;99.90;;;;;;5069168;28;20270;-76
2022/11/11 00:33:59;;;;;;;6.53;3.87;;;9.10;99.90;;;;;;5069124;28;20234;-76
2022/11/11 00:36:25;;;;;;;9.03;4.60;;;9.10;99.90;;;;;;5053829;28;20199;-76
2022/11/11 00:38:54;;;;;;;6.90;4.70;;;9.10;99.90;;;;;;5053896;28;20725;-76
2022/11/11 00:41:21;;;;;;;10.47;4.63;;;9.10;99.90;;;;;;5069002;28;20203;-77
2022/11/11 00:43:47;;;;;;;7.07;4.40;;;9.10;99.90;;;;;;5053593;28;20588;-76
2022/11/11 00:51:43;;;;;;;10.37;4.57;;;9.00;99.90;;;;;;5054060;28;20250;-76
2022/11/11 00:54:08;;;;;;;10.10;4.60;;;9.00;99.90;;;;;;5068696;28;20728;-76
2022/11/11 00:56:37;;;;;;;8.67;5.03;;;9.00;99.90;;;;;;5068229;28;20225;-76
2022/11/11 00:59:07;;;;;;;10.63;4.90;;;9.00;99.90;;;;;;5052243;28;20217;-76
2022/11/11 01:01:34;;;;;;;7.33;5.00;;;9.00;99.90;;;;;;5053271;28;20171;-76
2022/11/11 01:04:02;;;;;;;7.90;4.60;;;8.90;99.90;;;;;;5053531;28;20209;-75
2022/11/11 01:06:28;;;;;;;6.70;4.27;;;8.90;99.90;;;;;;5053230;28;20646;-76
2022/11/11 01:08:53;;;;;;;13.40;5.37;;;8.90;99.90;;;;;;5052954;28;20273;-76
2022/11/11 01:11:23;;;;;;;11.27;5.23;;;8.90;99.90;;;;;;5053056;28;20323;-76
2022/11/11 01:13:49;;;;;;;4.97;4.33;;;8.90;99.90;;;;;;5051667;28;20749;-76
2022/11/11 01:16:18;;;;;;;12.43;4.90;;;8.80;99.90;;;;;;5053294;28;20280;-76
2022/11/11 01:18:43;;;;;;;9.60;4.90;;;8.80;99.90;;;;;;5053015;28;20195;-76
2022/11/11 01:21:15;;;;;;;8.07;4.23;;;8.80;99.90;;;;;;5052873;28;20171;-76
2022/11/11 01:23:41;;;;;;;7.70;5.20;;;8.80;99.90;;;;;;5053304;28;20193;-76
2022/11/11 01:26:19;;;;;;;9.23;4.80;;;8.80;99.90;;;;;;5052848;28;20233;-76
2022/11/11 01:28:47;;;;;;;7.27;4.23;;;8.80;99.90;;;;;;5051791;28;20568;-76
2022/11/11 01:31:14;;;;;;;9.70;4.70;;;8.80;99.90;;;;;;5068191;28;20176;-76
2022/11/11 01:33:40;;;;;;;9.40;5.53;;;8.80;99.90;;;;;;5068132;28;20223;-76
2022/11/11 01:36:10;;;;;;;11.37;5.53;;;8.70;99.90;;;;;;5052758;28;20179;-76
2022/11/11 01:38:37;;;;;;;7.63;5.07;;;8.70;99.90;;;;;;5052730;28;20191;-76
2022/11/11 01:41:31;;;;;;;6.70;4.90;;;8.70;99.90;;;;;;5068088;28;20233;-76
2022/11/11 01:43:50;;;;;;;9.50;5.00;;;8.70;99.90;;;;;;5052891;28;20186;-76
2022/11/11 01:46:39;;;;;;;7.13;4.87;;;8.70;99.90;;;;;;5052606;28;20179;-76
2022/11/11 01:49:29;;;;;;;7.23;4.50;;;8.60;99.90;;;;;;5037214;28;20677;-76
2022/11/11 01:52:05;;;;;;;8.50;4.67;;;8.60;99.90;;;;;;5068043;28;20171;-76
2022/11/11 01:54:34;;;;;;;11.27;5.17;;;8.60;99.90;;;;;;5052767;28;20288;-76
2022/11/11 01:57:18;;;;;;;9.47;4.73;;;8.60;99.90;;;;;;5052708;28;20198;-76
2022/11/11 01:59:46;;;;;;;10.57;5.20;;;8.60;99.90;;;;;;5052526;28;20167;-76
2022/11/11 02:02:20;;;;;;;12.33;4.90;;;8.50;99.90;;;;;;5052527;28;20164;-76
2022/11/11 02:07:33;;;;;;;14.40;5.43;;;8.50;99.90;;;;;;5052677;28;20222;-76
2022/11/11 02:10:02;;;;;;;7.10;5.10;;;8.60;99.90;;;;;;5056383;28;20309;-76
2022/11/11 02:15:11;;;;;;;9.17;5.40;;;8.50;99.90;;;;;;5056382;28;20567;-76
2022/11/11 02:17:38;;;;;;;8.53;5.47;;;8.50;99.90;;;;;;5056512;28;20183;-76
2022/11/11 02:20:04;;;;;;;10.30;4.53;;;8.50;99.90;;;;;;5071706;28;20186;-76
2022/11/11 02:22:56;;;;;;;11.13;5.27;;;8.50;99.90;;;;;;5056226;28;20177;-76
2022/11/11 02:25:26;;;;;;;7.87;5.57;;;8.50;99.90;;;;;;5024764;28;20183;-76
2022/11/11 02:27:56;;;;;;;7.53;5.60;;;8.50;99.90;;;;;;5054824;28;20187;-76
2022/11/11 02:30:21;;;;;;;8.17;4.67;;;8.50;99.90;;;;;;5071532;28;20260;-76
2022/11/11 02:32:50;;;;;;;9.20;5.23;;;8.50;99.90;;;;;;5056065;28;20194;-77
2022/11/11 02:35:22;;;;;;;6.07;4.43;;;8.50;99.90;;;;;;5055953;28;20199;-76
2022/11/11 02:37:51;;;;;;;13.50;5.57;;;8.50;99.90;;;;;;5055930;28;20200;-76
2022/11/11 02:40:22;;;;;;;10.80;5.50;;;8.50;99.90;;;;;;5056216;28;20160;-76
2022/11/11 02:42:47;;;;;;;11.37;5.53;;;8.40;99.90;;;;;;5055956;28;20167;-76
2022/11/11 02:45:13;;;;;;;10.43;5.10;;;8.50;99.90;;;;;;5055851;28;20548;-76
2022/11/11 02:47:38;;;;;;;12.77;5.30;;;8.40;99.90;;;;;;5055716;28;20210;-76
2022/11/11 02:50:04;;;;;;;9.83;5.57;;;8.40;99.90;;;;;;5055750;28;20176;-76
2022/11/11 02:52:30;;;;;;;10.47;5.87;;;8.40;99.90;;;;;;5054464;28;20176;-76
2022/11/11 02:54:55;;;;;;;8.57;5.90;;;8.40;99.90;;;;;;5070971;28;20253;-76
2022/11/11 02:57:21;;;;;;;8.30;5.00;;;8.40;99.90;;;;;;5070897;28;20202;-75
2022/11/11 02:59:47;;;;;;;10.27;5.87;;;8.40;99.90;;;;;;5055810;28;20168;-76
2022/11/11 03:02:12;;;;;;;12.13;5.13;;;8.30;99.90;;;;;;5055840;28;20168;-76
2022/11/11 03:04:38;;;;;;;11.33;4.93;;;8.30;99.90;;;;;;5055574;28;20225;-76
2022/11/11 03:07:04;;;;;;;8.53;4.97;;;8.20;99.90;;;;;;5054146;28;20223;-76
2022/11/11 03:09:30;;;;;;;11.93;5.50;;;8.20;99.90;;;;;;5070860;28;20171;-76
2022/11/11 03:11:56;;;;;;;8.30;5.43;;;8.10;99.90;;;;;;5055370;28;20167;-76
2022/11/11 03:14:21;;;;;;;15.47;5.60;;;8.10;99.90;;;;;;5070644;28;20623;-76
2022/11/11 03:19:31;;;;;;;9.63;4.90;;;8.00;99.90;;;;;;5054828;28;20210;-76
2022/11/11 03:21:57;;;;;;;7.57;5.23;;;8.00;99.90;;;;;;5055189;28;20183;-76
2022/11/11 03:24:23;;;;;;;10.77;5.13;;;8.00;99.90;;;;;;5055121;28;20203;-76
2022/11/11 03:26:48;;;;;;;10.47;5.27;;;8.00;99.90;;;;;;5055193;28;20210;-76
2022/11/11 03:29:14;;;;;;;11.50;5.23;;;8.00;99.90;;;;;;5054991;28;20214;-76
2022/11/11 03:31:39;;;;;;;9.37;5.20;;;8.00;99.90;;;;;;5055263;28;20180;-76
2022/11/11 03:34:17;;;;;;;10.70;5.40;;;7.90;99.90;;;;;;5054890;28;20298;-76
2022/11/11 03:39:28;;;;;;;8.40;5.10;;;7.90;99.90;;;;;;5055338;28;20179;-76
2022/11/11 03:41:55;;;;;;;7.90;5.63;;;7.80;99.90;;;;;;5070211;28;20207;-76
2022/11/11 03:44:20;;;;;;;9.40;5.53;;;7.80;99.90;;;;;;5070511;28;20600;-75
2022/11/11 03:46:46;;;;;;;8.70;5.20;;;7.90;99.90;;;;;;5054584;28;20171;-76
2022/11/11 03:49:11;;;;;;;8.43;5.90;;;7.80;99.90;;;;;;5070178;28;20236;-76
2022/11/11 03:51:37;;;;;;;5.77;4.67;;;7.80;99.90;;;;;;5054517;28;20180;-76
2022/11/11 03:54:02;;;;;;;6.70;5.07;;;7.80;99.90;;;;;;5069788;28;20226;-76
2022/11/11 03:56:28;;;;;;;13.80;5.80;;;7.80;99.90;;;;;;5054537;28;20172;-76
2022/11/11 03:58:53;;;;;;;8.30;5.10;;;7.80;99.90;;;;;;5069730;28;20200;-76
2022/11/11 04:12:15;;;;;;;9.63;4.73;;;7.90;99.90;;;;;;5095474;28;20163;-93
2022/11/11 04:17:25;;;;;;;8.43;4.57;;;7.80;99.90;;;;;;5095947;28;20205;-93
2022/11/11 04:22:41;;;;;;;7.63;4.53;;;7.80;99.90;;;;;;5095860;28;20143;-93
2022/11/11 04:29:27;;;;;;;9.13;5.20;;;7.70;99.90;;;;;;5096041;28;20162;-94
2022/11/11 04:30:42;;;;;;;7.90;4.73;;;7.80;99.90;;;;;;5093983;28;20178;-94
2022/11/11 04:33:08;;;;;;;5.77;4.43;;;7.70;99.90;;;;;;5093737;28;20185;-93
2022/11/11 04:35:33;;;;;;;9.27;4.90;;;7.70;99.90;;;;;;5095347;28;20182;-93
2022/11/11 04:43:28;;;;;;;9.80;5.03;;;7.70;99.90;;;;;;5095301;28;20205;-93
2022/11/11 04:45:57;;;;;;;6.97;5.20;;;7.60;99.90;;;;;;5094957;28;20178;-93
2022/11/11 04:48:23;;;;;;;7.87;4.17;;;7.70;99.90;;;;;;5092949;28;20179;-93
2022/11/11 04:50:49;;;;;;;6.27;4.80;;;7.70;99.90;;;;;;5092932;28;20170;-93
2022/11/11 04:53:14;;;;;;;10.23;5.13;;;7.60;99.90;;;;;;5093726;28;20198;-93
2022/11/11 04:58:29;;;;;;;8.47;4.33;;;7.70;99.90;;;;;;5097913;28;20139;-93
2022/11/11 05:00:54;;;;;;;12.37;4.73;;;7.60;99.90;;;;;;5096663;28;20159;-93
2022/11/11 05:03:23;;;;;;;9.07;4.40;;;7.60;99.90;;;;;;5095167;28;20230;-93
2022/11/11 05:08:56;;;;;;;7.90;4.50;;;7.70;99.90;;;;;;5092526;28;20197;-93
2022/11/11 05:11:33;;;;;;;6.43;4.73;;;7.60;99.90;;;;;;5091675;28;20178;-93
2022/11/11 05:22:29;;;;;;;6.80;4.33;;;7.70;99.90;;;;;;5090983;28;20233;-94
2022/11/11 05:27:39;;;;;;;11.97;3.93;;;7.70;99.90;;;;;;5089666;28;20190;-92
2022/11/11 05:30:06;;;;;;;9.07;4.10;;;7.90;99.90;;;;;;5087107;28;20246;-93
2022/11/11 05:32:32;;;;;;;9.20;4.40;;;7.70;99.90;;;;;;5083947;28;20183;-93
2022/11/11 05:34:58;;;;;;;11.57;4.40;;;7.70;99.90;;;;;;5086024;28;20209;-93
2022/11/11 05:37:23;;;;;;;8.67;4.70;;;7.70;99.90;;;;;;5086924;28;20183;-93
2022/11/11 05:39:49;;;;;;;7.20;4.33;;;7.70;99.90;;;;;;5089258;28;20181;-93
2022/11/11 05:42:14;;;;;;;6.87;4.87;;;7.80;99.90;;;;;;5086507;28;20179;-93
2022/11/11 05:44:40;;;;;;;7.33;4.53;;;7.70;99.90;;;;;;5088338;28;20195;-93
2022/11/11 05:47:06;;;;;;;11.23;4.90;;;8.10;99.90;;;;;;5088412;28;20179;-93
2022/11/11 05:49:32;;;;;;;10.03;4.57;;;7.70;99.90;;;;;;5089669;28;20209;-93
2022/11/11 05:51:58;;;;;;;5.83;4.00;;;7.80;99.90;;;;;;5086632;28;20215;-93
2022/11/11 05:54:23;;;;;;;6.73;4.10;;;7.80;99.90;;;;;;5085576;28;20229;-93
2022/11/11 05:56:49;;;;;;;7.70;4.90;;;7.80;99.90;;;;;;5088814;28;20235;-92
2022/11/11 05:59:15;;;;;;;8.97;4.87;;;7.80;99.90;;;;;;5085755;28;20591;-93
2022/11/11 06:01:41;;;;;;;6.97;4.73;;;8.00;99.90;;;;;;5082548;28;20174;-92
2022/11/11 06:04:07;;;;;;;7.50;4.53;;;7.80;99.90;;;;;;5077721;28;20304;-92
2022/11/11 06:06:34;;;;;;;5.43;4.83;;;7.90;99.90;;;;;;5077810;28;20213;-93
2022/11/11 06:08:59;;;;;;;12.67;5.00;;;7.80;99.90;;;;;;5076954;28;20278;-92
2022/11/11 06:11:26;;;;;;;9.70;4.40;;;7.80;99.90;;;;;;5077093;28;20624;-92
2022/11/11 06:13:52;;;;;;;7.13;3.97;;;7.80;99.90;;;;;;5076643;28;20199;-92
2022/11/11 06:16:18;;;;;;;9.40;4.07;;;7.80;99.90;;;;;;5078173;28;20272;-92
2022/11/11 06:18:44;;;;;;;8.53;4.10;;;7.80;99.90;;;;;;5078409;28;20559;-92
2022/11/11 06:21:10;;;;;;;7.77;4.47;;;7.80;99.90;;;;;;5078446;28;20637;-92
2022/11/11 06:23:35;;;;;;;8.20;4.87;;;7.80;99.90;;;;;;5077274;28;20205;-93
2022/11/11 06:26:13;;;;;;;6.80;4.17;;;7.80;99.90;;;;;;5079498;28;20189;-92
2022/11/11 06:28:46;;;;;;;7.47;4.57;;;7.80;99.90;;;;;;5077143;28;20175;-93
2022/11/11 06:31:20;;;;;;;8.07;5.00;;;7.80;99.90;;;;;;5078874;28;20190;-93
2022/11/11 06:33:45;;;;;;;13.80;5.00;;;7.80;99.90;;;;;;5079334;28;20237;-92
2022/11/11 06:36:13;;;;;;;6.83;4.97;;;7.80;99.90;;;;;;5082164;28;20171;-93
2022/11/11 06:38:40;;;;;;;8.90;5.10;;;7.80;99.90;;;;;;5081408;28;20178;-93
2022/11/11 06:41:06;;;;;;;9.50;4.60;;;7.80;99.90;;;;;;5080008;28;20183;-93
2022/11/11 06:43:32;;;;;;;9.03;4.97;;;7.80;99.90;;;;;;5085473;28;20698;-92
2022/11/11 06:45:58;;;;;;;9.37;4.73;;;7.90;99.90;;;;;;5085827;28;20179;-92
2022/11/11 06:48:25;;;;;;;8.10;4.30;;;7.90;99.90;;;;;;5086094;28;20179;-93
2022/11/11 06:50:52;;;;;;;7.93;4.60;;;7.80;99.90;;;;;;5087530;28;20206;-93
2022/11/11 06:53:19;;;;;;;7.73;4.47;;;7.90;99.90;;;;;;5088984;28;20195;-92
2022/11/11 06:55:45;;;;;;;9.37;5.03;;;7.90;99.90;;;;;;5086104;28;20175;-93
2022/11/11 06:58:15;;;;;;;7.57;4.53;;;7.80;99.90;;;;;;5082517;28;20167;-92
2022/11/11 07:00:41;;;;;;;8.47;5.10;;;7.80;99.90;;;;;;5075502;28;20178;-93
2022/11/11 07:03:08;;;;;;;8.97;4.37;;;7.80;99.90;;;;;;5076517;28;20202;-92
2022/11/11 07:05:34;;;;;;;8.30;4.63;;;7.90;99.90;;;;;;5076240;28;20178;-93
2022/11/11 07:08:05;;;;;;;8.37;4.27;;;7.90;99.90;;;;;;5075136;28;20197;-93
2022/11/11 07:10:32;;;;;;;7.37;4.47;;;7.90;99.90;;;;;;5076436;28;20270;-92
2022/11/11 07:12:58;;;;;;;6.03;4.43;;;7.90;99.90;;;;;;5074917;28;20240;-93
2022/11/11 07:15:24;;;;;;;10.83;5.50;;;8.10;99.90;;;;;;5075307;28;20199;-93
2022/11/11 07:17:50;;;;;;;8.40;4.70;;;7.90;99.90;;;;;;5075297;28;20181;-93
2022/11/11 07:20:16;;;;;;;8.67;4.43;;;7.90;99.90;;;;;;5076248;28;20175;-93
2022/11/11 07:22:42;;;;;;;13.17;5.23;;;8.00;99.90;;;;;;5076260;28;20185;-93
2022/11/11 07:25:08;;;;;;;8.07;5.23;;;8.00;99.90;;;;;;5075202;28;20657;-93
2022/11/11 07:27:38;;;;;;;7.00;4.80;;;8.00;99.90;;;;;;5075093;28;20648;-93
2022/11/11 07:30:04;;;;;;;7.07;4.70;;;8.00;99.90;;;;;;5074700;28;20215;-92
2022/11/11 07:32:30;;;;;;;8.50;5.10;;;8.00;99.90;;;;;;5074586;28;20178;-93
2022/11/11 07:34:56;;;;;;;10.30;5.20;;;8.00;99.90;;;;;;5074513;28;20202;-93
2022/11/11 07:37:21;;;;;;;7.17;4.70;;;8.10;99.90;;;;;;5074773;28;20187;-93
2022/11/11 07:39:47;;;;;;;8.60;4.97;;;8.10;99.90;;;;;;5075938;28;20171;-92
2022/11/11 07:42:12;;;;;;;5.67;4.50;;;8.10;99.90;;;;;;5075794;28;20171;-93
2022/11/11 07:44:38;;;;;;;6.70;4.33;;;8.20;99.90;;;;;;5074299;28;20190;-93
2022/11/11 07:47:04;;;;;;;8.40;4.50;;;8.20;99.90;;;;;;5075965;28;20224;-92
2022/11/11 07:49:29;;;;;;;7.73;4.77;;;8.30;99.90;;;;;;5074546;28;20181;-93
2022/11/11 07:51:55;;;;;;;9.20;4.23;;;8.40;99.90;;;;;;5074524;28;20640;-92
2022/11/11 07:54:23;;;;;;;6.47;4.13;;;8.30;99.90;;;;;;5074278;28;20205;-93
2022/11/11 07:56:49;;;;;;;9.87;5.20;;;8.30;99.90;;;;;;5075115;28;20183;-92
2022/11/11 07:59:14;;;;;;;9.90;4.63;;;8.30;99.90;;;;;;5074639;28;20225;-93
2022/11/11 08:01:40;;;;;;;8.43;4.33;;;8.50;99.90;;;;;;5076807;28;20172;-93
2022/11/11 08:04:05;;;;;;;11.70;4.73;;;8.40;99.90;;;;;;5079888;28;20277;-93
2022/11/11 08:06:31;;;;;;;6.83;4.57;;;8.40;99.90;;;;;;5074821;28;20586;-92
2022/11/11 08:08:57;;;;;;;10.27;4.57;;;8.50;99.90;;;;;;5074677;28;20652;-93
2022/11/11 08:14:07;;;;;;;11.57;5.10;;;8.60;99.90;;;;;;5075383;28;20209;-92
2022/11/11 08:16:32;;;;;;;7.30;5.43;;;8.60;99.90;;;;;;5074466;28;20269;-92
2022/11/11 08:18:58;;;;;;;11.33;5.30;;;8.70;99.90;;;;;;5074533;28;20649;-93
2022/11/11 08:21:24;;;;;;;11.70;4.60;;;8.70;99.90;;;;;;5074024;28;20216;-92
2022/11/11 08:23:50;;;;;;;9.50;4.73;;;8.70;99.90;;;;;;5075586;28;20198;-92
2022/11/11 08:26:17;;;;;;;10.97;4.33;;;8.90;99.90;;;;;;5074397;28;20661;-92
2022/11/11 08:28:43;;;;;;;9.33;4.67;;;8.80;99.90;;;;;;5075034;28;20668;-93
2022/11/11 08:31:09;;;;;;;10.53;4.97;;;8.90;99.90;;;;;;5076984;28;20208;-92
2022/11/11 08:33:35;;;;;;;9.07;5.17;;;8.90;99.90;;;;;;5089592;28;20202;-93
2022/11/11 08:36:01;;;;;;;7.97;4.70;;;8.90;99.90;;;;;;5093084;28;20183;-93
2022/11/11 08:38:27;;;;;;;9.33;5.10;;;9.00;99.90;;;;;;5093590;28;20183;-92
2022/11/11 08:40:53;;;;;;;12.47;4.57;;;9.10;99.90;;;;;;5086328;28;20207;-93
2022/11/11 08:43:19;;;;;;;10.27;4.37;;;9.10;99.90;;;;;;5087060;28;20259;-93
2022/11/11 08:45:45;;;;;;;7.37;4.53;;;9.10;99.90;;;;;;5090775;28;20185;-93
2022/11/11 08:48:11;;;;;;;8.00;4.77;;;9.20;99.90;;;;;;5088126;28;20206;-94
2022/11/11 08:50:38;;;;;;;11.10;5.10;;;9.30;99.90;;;;;;5087785;28;20190;-93
2022/11/11 08:53:06;;;;;;;7.97;5.00;;;9.30;99.90;;;;;;5087676;28;20266;-92
2022/11/11 08:55:33;;;;;;;7.90;4.47;;;9.30;99.90;;;;;;5087472;28;20199;-93
2022/11/11 08:58:06;;;;;;;8.33;4.50;;;9.30;99.90;;;;;;5089007;28;20179;-93
2022/11/11 09:00:32;;;;;;;11.70;5.13;;;9.50;99.90;;;;;;5089881;28;20167;-92
2022/11/11 09:03:09;;;;;;;6.37;4.00;;;9.50;99.90;;;;;;5090879;28;20195;-93
2022/11/11 09:05:37;;;;;;;9.80;5.10;;;9.50;99.90;;;;;;5090523;28;20195;-93
2022/11/11 09:08:06;;;;;;;7.87;5.00;;;9.60;99.90;;;;;;5092817;28;20656;-93
2022/11/11 09:10:33;;;;;;;8.47;5.10;;;9.60;99.90;;;;;;5093321;28;20166;-93
2022/11/11 09:13:02;;;;;;;9.47;5.13;;;9.70;99.90;;;;;;5090151;28;20210;-93
2022/11/11 09:15:31;;;;;;;9.23;4.47;;;9.80;99.90;;;;;;5087587;28;20199;-92
2022/11/11 09:17:56;;;;;;;8.27;4.60;;;9.70;99.90;;;;;;5088700;28;20182;-93
2022/11/11 09:20:23;;;;;;;10.90;4.40;;;9.80;99.90;;;;;;5088863;28;20163;-94
2022/11/11 09:22:48;;;;;;;9.00;4.37;;;9.80;99.90;;;;;;5089058;28;20209;-93
2022/11/11 09:25:15;;;;;;;12.33;4.40;;;9.80;99.90;;;;;;5090431;28;20207;-92
2022/11/11 09:27:41;;;;;;;10.50;5.23;;;9.90;99.90;;;;;;5095752;28;20179;-92
2022/11/11 09:30:10;;;;;;;6.10;3.73;;;9.90;99.90;;;;;;5090126;28;20175;-93
2022/11/11 09:32:36;;;;;;;5.73;3.90;;;10.00;90.50;;;;;;5093074;28;20177;-92
2022/11/11 09:35:05;;;;;;;9.03;4.70;;;10.00;71.70;;;;;;5091840;28;20226;-93
2022/11/11 09:37:31;;;;;;;8.77;4.20;;;10.20;49.20;;;;;;5092759;28;20640;-93
2022/11/11 09:39:56;;;;;;;9.73;4.20;;;10.10;39.10;;;;;;5092996;28;20162;-93
2022/11/11 09:42:36;;;;;;;9.73;3.97;;;10.20;12.40;;;;;;5090453;28;20182;-93
2022/11/11 09:45:18;;;;;;;8.83;4.07;;;10.20;1.00;;;;;;5089207;28;20179;-93
2022/11/11 09:48:05;;;;;;;6.93;3.77;;;10.20;1.00;;;;;;5090317;28;20183;-93
2022/11/11 09:50:36;;;;;;;7.73;4.00;;;10.30;1.00;;;;;;5086955;28;20175;-92
2022/11/11 09:53:19;;;;;;;5.70;3.57;;;10.30;1.00;;;;;;5088247;28;20202;-93
2022/11/11 09:56:13;;;;;;;5.07;3.87;;;10.40;1.00;;;;;;5088924;28;20181;-94
2022/11/11 09:58:58;;;;;;;8.83;4.17;;;10.50;1.00;;;;;;5096486;28;20171;-93
2022/11/11 10:01:43;;;;;;;10.33;2.97;;;10.50;1.00;;;;;;5090688;28;20194;-93
2022/11/11 10:04:28;;;;;;;9.67;3.97;;;10.60;1.00;;;;;;5089423;28;20626;-93
2022/11/11 10:07:04;;;;;;;5.83;3.83;;;10.60;1.00;;;;;;5089393;28;20242;-93
2022/11/11 10:10:12;;;;;;;9.57;4.10;;;10.70;99.90;;;;;;5091278;28;20171;-93
2022/11/11 10:12:46;;;;;;;4.73;3.33;;;10.80;99.90;;;;;;5051369;28;20215;-92
2022/11/11 10:15:13;;;;;;;5.17;3.60;;;10.70;99.90;;;;;;5088530;28;20202;-92
2022/11/11 10:18:06;;;;;;;5.10;4.03;;;10.90;99.90;;;;;;5087420;28;20248;-93
2022/11/11 10:20:37;;;;;;;5.27;3.47;;;10.90;1.00;;;;;;5086850;28;20177;-93
2022/11/11 10:23:12;;;;;;;5.07;3.70;;;11.00;1.00;;;;;;5088646;28;20195;-93
2022/11/11 10:25:48;;;;;;;7.60;4.30;;;11.40;1.00;;;;;;5084653;28;20218;-92
2022/11/11 10:28:19;;;;;;;6.77;3.83;;;11.20;1.00;;;;;;5088847;28;20166;-93
2022/11/11 10:30:47;;;;;;;7.67;3.80;;;11.20;99.90;;;;;;5091073;28;20193;-93
2022/11/11 10:33:29;;;;;;;8.23;3.73;;;11.30;1.00;;;;;;5093552;28;20189;-93
2022/11/11 10:36:01;;;;;;;9.97;4.40;;;11.30;99.90;;;;;;5093684;28;20166;-92
2022/11/11 10:38:51;;;;;;;5.70;3.40;;;11.40;23.10;;;;;;5094254;28;20286;-93
2022/11/11 10:41:47;;;;;;;9.23;3.20;;;11.40;99.90;;;;;;5092680;28;20167;-93
2022/11/11 10:44:34;;;;;;;8.60;3.20;;;11.50;76.30;;;;;;5091201;28;20202;-92
2022/11/11 10:47:04;;;;;;;11.00;3.73;;;11.60;1.00;;;;;;5094185;28;20163;-92
2022/11/11 10:49:34;;;;;;;4.93;3.10;;;12.00;99.90;;;;;;5092680;28;20205;-93
2022/11/11 10:52:17;;;;;;;5.07;3.43;;;11.80;99.90;;;;;;5097905;28;20179;-92
2022/11/11 10:55:01;;;;;;;5.63;3.57;;;11.80;93.10;;;;;;5099748;28;20213;-92
2022/11/11 10:57:38;;;;;;;4.53;2.93;;;11.80;1.00;;;;;;5099356;28;20159;-93
2022/11/11 11:00:10;;;;;;;6.60;3.07;;;11.90;1.00;;;;;;5095915;28;20230;-92
2022/11/11 11:02:50;;;;;;;4.90;3.27;;;12.00;99.90;;;;;;5094322;28;20171;-92
2022/11/11 11:05:31;;;;;;;10.83;4.10;;;12.10;1.00;;;;;;5094221;28;20196;-93
2022/11/11 11:08:08;;;;;;;4.93;3.20;;;12.10;1.00;;;;;;5091474;28;20274;-92
2022/11/11 11:10:54;;;;;;;4.80;2.80;;;12.30;1.00;;;;;;5093905;28;20182;-93
2022/11/11 11:13:41;;;;;;;4.03;2.97;;;12.20;1.00;;;;;;5093009;28;20224;-93
2022/11/11 11:16:14;;;;;;;7.07;3.00;;;12.30;1.00;;;;;;5093998;28;20160;-93
2022/11/11 11:18:40;;;;;;;4.67;3.10;;;12.40;1.00;;;;;;5093634;28;20617;-93
2022/11/11 11:21:07;;;;;;;6.97;3.10;;;12.40;1.00;;;;;;5096481;28;20189;-93
2022/11/11 11:23:44;;;;;;;10.67;2.77;;;12.50;1.00;;;;;;5095387;28;20195;-93
2022/11/11 11:26:12;;;;;;;4.33;2.73;;;12.60;99.90;;;;;;5096612;28;20167;-91
2022/11/11 11:28:58;;;;;;;10.10;3.80;;;12.60;99.90;;;;;;5095305;28;20182;-93
2022/11/11 11:31:46;;;;;;;8.07;3.13;;;12.70;99.90;;;;;;5095519;28;20155;-94
2022/11/11 11:34:12;;;;;;;7.57;3.03;;;12.70;99.90;;;;;;5094100;28;20237;-93
2022/11/11 11:37:01;;;;;;;5.30;2.87;;;12.70;99.90;;;;;;5098330;28;20171;-93
2022/11/11 11:39:57;;;;;;;7.03;3.00;;;12.90;99.90;;;;;;5099638;28;20155;-93
2022/11/11 11:42:40;;;;;;;4.37;2.60;;;12.70;99.90;;;;;;5100896;28;20177;-92
2022/11/11 11:45:27;;;;;;;6.30;2.80;;;12.80;99.90;;;;;;5100470;28;20182;-92
2022/11/11 11:48:34;;;;;;;5.43;2.57;;;12.80;99.90;;;;;;5100936;28;20171;-93
2022/11/11 11:51:34;;;;;;;6.60;2.70;;;12.80;99.90;;;;;;5096526;28;20199;-92
2022/11/11 11:54:32;;;;;;;9.50;2.90;;;12.80;99.90;;;;;;5096703;28;20206;-94
2022/11/11 11:57:02;;;;;;;4.17;2.20;;;12.80;99.90;;;;;;5099272;28;20181;-93
2022/11/11 12:00:13;;;;;;;4.77;2.53;;;12.80;99.90;;;;;;5098140;28;20154;-92
2022/11/11 12:03:00;;;;;;;4.07;2.47;;;12.80;99.90;;;;;;5022166;28;20355;-92
2022/11/11 12:06:05;;;;;;;4.30;2.60;;;12.90;99.90;;;;;;5034514;28;20196;-93
2022/11/11 12:08:43;;;;;;;6.57;3.20;;;12.90;99.90;;;;;;5048036;28;20210;-92
2022/11/11 12:11:19;;;;;;;8.37;2.87;;;12.90;1.00;;;;;;5096997;28;20159;-94
2022/11/11 12:14:17;;;;;;;7.87;2.57;;;13.00;98.50;;;;;;5097440;28;20297;-93
2022/11/11 12:16:53;;;;;;;5.90;2.83;;;13.00;99.90;;;;;;5096500;28;20197;-94
2022/11/11 12:19:35;;;;;;;5.03;2.90;;;13.00;97.10;;;;;;5097372;28;20237;-93
2022/11/11 12:22:06;;;;;;;4.97;2.97;;;13.00;1.00;;;;;;5096465;28;20175;-93
2022/11/11 12:24:48;;;;;;;6.90;2.83;;;13.00;11.70;;;;;;5096456;28;20294;-93
2022/11/11 12:27:37;;;;;;;6.43;2.90;;;13.00;16.90;;;;;;5095800;28;20157;-94
2022/11/11 12:30:10;;;;;;;6.00;3.00;;;13.10;1.00;;;;;;5096680;28;20160;-91
2022/11/11 12:33:12;;;;;;;4.87;2.73;;;13.00;1.00;;;;;;5099050;28;20217;-93
2022/11/11 12:35:47;;;;;;;5.53;3.10;;;13.00;1.00;;;;;;5099217;28;20182;-92
2022/11/11 12:38:39;;;;;;;5.37;2.90;;;12.90;1.00;;;;;;5098647;28;20193;-92
2022/11/11 12:41:24;;;;;;;4.20;2.47;;;13.00;1.00;;;;;;5098864;28;20166;-92
2022/11/11 12:44:11;;;;;;;4.33;2.30;;;13.00;1.00;;;;;;5098172;28;20179;-93
2022/11/11 12:46:59;;;;;;;10.70;3.30;;;13.00;1.00;;;;;;5096600;28;20163;-94
2022/11/11 12:49:55;;;;;;;5.60;2.40;;;13.00;1.00;;;;;;5096758;28;20179;-94
2022/11/11 12:53:09;;;;;;;4.47;2.47;;;13.00;1.00;;;;;;5094842;28;20236;-93
2022/11/11 12:55:43;;;;;;;5.20;2.73;;;12.90;27.10;;;;;;5078739;28;20214;-94
2022/11/11 12:58:19;;;;;;;4.97;2.30;;;13.00;44.70;;;;;;5096288;28;20177;-93
2022/11/11 13:01:43;;;;;;;5.43;2.60;;;13.00;35.70;;;;;;5097170;28;20193;-94
2022/11/11 13:04:36;;;;;;;6.03;2.47;;;13.00;18.50;;;;;;5098394;28;20190;-91
2022/11/11 13:07:36;;;;;;;5.30;2.30;;;13.00;1.00;;;;;;5098692;28;20159;-91
2022/11/11 13:10:51;;;;;;;3.70;1.97;;;12.80;1.00;;;;;;5098249;28;20183;-94
2022/11/11 13:13:19;;;;;;;5.47;2.50;;;13.00;1.00;;;;;;5036921;28;20188;-93
2022/11/11 13:15:48;;;;;;;3.73;1.83;;;13.00;1.00;;;;;;5037696;28;20228;-93
2022/11/11 13:18:19;;;;;;;4.13;1.73;;;13.20;1.00;;;;;;5081065;27;20174;-93
2022/11/11 13:20:57;;;;;;;3.17;2.10;;;13.00;1.00;;;;;;5097818;28;20171;-92
2022/11/11 13:23:23;;;;;;;3.33;1.93;;;13.10;1.00;;;;;;5098614;28;20186;-90
2022/11/11 13:25:53;;;;;;;4.17;2.03;;;13.10;1.00;;;;;;5097745;28;20163;-93
2022/11/11 13:28:44;;;;;;;2.20;1.77;;;13.10;1.00;;;;;;5098026;28;20170;-92
2022/11/11 13:31:33;;;;;;;3.77;1.80;;;13.00;1.00;;;;;;5098333;28;20178;-93
2022/11/11 13:34:12;;;;;;;8.17;2.57;;;13.10;1.00;;;;;;5097454;28;20213;-93
2022/11/11 13:36:56;;;;;;;4.67;2.03;;;13.10;8.30;;;;;;5098168;28;20166;-94
2022/11/11 13:39:30;;;;;;;4.30;2.00;;;13.20;28.10;;;;;;5097411;28;20162;-91
2022/11/11 13:42:00;;;;;;;4.37;1.83;;;13.10;1.00;;;;;;5097995;28;20201;-92
2022/11/11 13:44:27;;;;;;;4.57;2.20;;;13.10;1.00;;;;;;5098388;28;20195;-91
2022/11/11 13:47:03;;;;;;;4.30;2.03;;;13.20;1.00;;;;;;5096213;28;20244;-93
2022/11/11 13:49:37;;;;;;;3.20;1.70;;;13.20;1.00;;;;;;5096400;28;20238;-93
2022/11/11 13:52:22;;;;;;;6.87;2.10;;;13.30;1.60;;;;;;5097195;28;20163;-93
2022/11/11 13:55:00;;;;;;;3.00;1.70;;;13.10;50.20;;;;;;5096795;28;20240;-93
2022/11/11 13:57:30;;;;;;;3.70;1.83;;;13.00;61.90;;;;;;5097647;28;20151;-93
2022/11/11 14:00:22;;;;;;;2.97;1.80;;;13.10;77.20;;;;;;5097179;28;20174;-93
2022/11/11 14:03:19;;;;;;;5.50;2.37;;;13.10;64.10;;;;;;5096632;28;20199;-92
2022/11/11 14:05:45;;;;;;;3.30;1.70;;;13.10;36.50;;;;;;5101487;28;20171;-94
2022/11/11 14:08:49;;;;;;;2.70;1.70;;;13.20;40.30;;;;;;5099962;28;20189;-91
2022/11/11 14:11:24;;;;;;;4.80;1.53;;;13.10;9.30;;;;;;5100527;27;20158;-91
2022/11/11 14:14:11;;;;;;;2.30;1.80;;;13.20;1.80;;;;;;5100850;28;20198;-94
2022/11/11 14:16:37;;;;;;;4.40;1.50;;;13.20;39.70;;;;;;5099822;28;20186;-94
2022/11/11 14:19:18;;;;;;;6.07;1.90;;;13.20;30.70;;;;;;5100536;28;20182;-94
2022/11/11 14:22:32;;;;;;;4.07;1.80;;;13.20;1.00;;;;;;5098244;28;20182;-93
2022/11/11 14:25:21;;;;;;;4.37;1.97;;;13.20;1.00;;;;;;5040443;28;20164;-93
2022/11/11 14:27:52;;;;;;;3.20;1.63;;;13.20;1.00;;;;;;5041521;28;20164;-93
2022/11/11 14:30:37;;;;;;;2.87;1.47;;;13.20;18.00;;;;;;5084126;28;20186;-93